Time;durP1;ratioP1;P1;durP2;ratioP2;P2;SDS_P1;SDS_P2;PMS_P1;PMS_P2;Temp;Humidity;BMP_temperature;BMP_pressure;BME280_temperature;BME280_humidity;BME280_pressure;Samples;Min_cycle;Max_cycle;Signal;HPM_P1;HPM_P2
2023/07/08 00:00:20;;;;;;;11.37;7.10;;;23.30;48.50;;;;;;4950108;28;20479;-81
2023/07/08 00:02:45;;;;;;;18.20;7.87;;;23.30;47.90;;;;;;4949950;28;20218;-79
2023/07/08 00:05:13;;;;;;;11.40;6.40;;;23.30;46.90;;;;;;4958253;29;20897;-80
2023/07/08 00:07:40;;;;;;;16.00;7.33;;;23.20;47.00;;;;;;4950876;28;20616;-80
2023/07/08 00:10:14;;;;;;;14.90;7.10;;;23.20;46.90;;;;;;4953425;28;20472;-80
2023/07/08 00:12:40;;;;;;;11.60;6.50;;;23.10;47.30;;;;;;4956172;28;20455;-82
2023/07/08 00:15:06;;;;;;;13.70;7.20;;;23.10;46.90;;;;;;4957169;28;20426;-80
2023/07/08 00:17:33;;;;;;;13.70;7.07;;;23.10;47.30;;;;;;4961053;29;20453;-81
2023/07/08 00:19:59;;;;;;;17.10;7.03;;;23.10;47.40;;;;;;4965206;28;20500;-81
2023/07/08 00:22:25;;;;;;;12.50;6.33;;;23.00;47.10;;;;;;4969474;28;20445;-80
2023/07/08 00:24:51;;;;;;;13.30;6.77;;;22.90;47.80;;;;;;4961831;29;20206;-79
2023/07/08 00:27:17;;;;;;;13.07;7.37;;;22.90;48.10;;;;;;4951517;29;20224;-79
2023/07/08 00:29:43;;;;;;;12.67;6.70;;;22.80;48.50;;;;;;4945887;28;20478;-81
2023/07/08 00:32:14;;;;;;;13.30;6.60;;;22.80;48.50;;;;;;4960976;28;20503;-81
2023/07/08 00:34:41;;;;;;;14.73;6.50;;;22.80;48.10;;;;;;4958171;28;20473;-81
2023/07/08 00:37:10;;;;;;;14.43;7.80;;;22.80;48.30;;;;;;4956148;29;20838;-79
2023/07/08 00:39:36;;;;;;;11.20;6.63;;;22.70;48.50;;;;;;4950888;28;20465;-79
2023/07/08 00:42:16;;;;;;;12.30;6.10;;;22.70;48.70;;;;;;4964523;28;20450;-81
2023/07/08 00:44:42;;;;;;;12.53;6.37;;;22.60;48.90;;;;;;4951221;29;20201;-80
2023/07/08 00:47:11;;;;;;;13.23;7.20;;;22.60;49.10;;;;;;4960810;28;20466;-81
2023/07/08 00:50:06;;;;;;;16.07;8.13;;;22.50;49.40;;;;;;4959687;28;20447;-79
2023/07/08 00:52:31;;;;;;;13.57;6.57;;;22.40;49.40;;;;;;4960424;28;20449;-84
2023/07/08 00:55:09;;;;;;;12.67;6.60;;;22.20;49.80;;;;;;4959719;28;20444;-78
2023/07/08 00:57:38;;;;;;;13.10;5.80;;;22.10;50.10;;;;;;4964590;28;20293;-79
2023/07/08 01:00:11;;;;;;;12.37;6.43;;;22.00;50.50;;;;;;4969834;28;20479;-78
2023/07/08 01:02:48;;;;;;;13.00;7.23;;;22.00;50.50;;;;;;4959954;28;20532;-80
2023/07/08 01:05:18;;;;;;;13.43;6.50;;;22.00;50.60;;;;;;4961655;29;20485;-79
2023/07/08 01:07:50;;;;;;;14.33;6.60;;;22.00;50.30;;;;;;4959410;29;20442;-79
2023/07/08 01:10:22;;;;;;;12.37;6.60;;;21.90;50.70;;;;;;4946038;28;20575;-81
2023/07/08 01:12:51;;;;;;;12.50;6.47;;;21.90;50.70;;;;;;4952720;28;20767;-80
2023/07/08 01:15:17;;;;;;;11.50;6.60;;;22.00;50.30;;;;;;4952170;29;20482;-79
2023/07/08 01:17:45;;;;;;;12.77;6.40;;;22.10;50.30;;;;;;4957000;28;20493;-77
2023/07/08 01:20:12;;;;;;;10.67;6.60;;;22.00;50.70;;;;;;4956427;28;20887;-84
2023/07/08 01:22:40;;;;;;;12.37;6.60;;;22.10;49.90;;;;;;4947722;28;20449;-79
2023/07/08 01:25:07;;;;;;;11.77;6.50;;;22.10;49.90;;;;;;4960786;28;20443;-80
2023/07/08 01:27:38;;;;;;;14.53;7.17;;;22.00;50.20;;;;;;4948673;29;20534;-79
2023/07/08 01:30:05;;;;;;;16.50;7.80;;;21.90;50.60;;;;;;4948039;28;20535;-79
2023/07/08 01:32:35;;;;;;;12.70;6.47;;;21.90;51.00;;;;;;4959446;28;20456;-80
2023/07/08 01:35:03;;;;;;;17.17;7.27;;;21.90;51.00;;;;;;4958349;29;20444;-78
2023/07/08 01:37:40;;;;;;;11.03;6.83;;;21.90;51.00;;;;;;4970505;29;20428;-78
2023/07/08 01:40:21;;;;;;;14.13;6.63;;;21.90;50.90;;;;;;4967685;28;20537;-79
2023/07/08 01:42:47;;;;;;;10.97;5.87;;;21.90;50.60;;;;;;4968027;28;20447;-79
2023/07/08 01:45:15;;;;;;;11.90;6.00;;;21.90;50.30;;;;;;4968228;28;20440;-79
2023/07/08 01:47:46;;;;;;;13.37;6.37;;;21.80;50.20;;;;;;4959944;28;20439;-80
2023/07/08 01:50:12;;;;;;;11.47;6.70;;;21.80;50.30;;;;;;4954354;28;20463;-79
2023/07/08 01:52:38;;;;;;;12.77;5.97;;;21.80;50.30;;;;;;4963489;28;20821;-80
2023/07/08 01:55:04;;;;;;;9.70;6.07;;;21.80;50.50;;;;;;4954299;28;20685;-78
2023/07/08 01:57:30;;;;;;;15.40;6.17;;;21.80;50.70;;;;;;4955587;28;20447;-80
2023/07/08 01:59:56;;;;;;;14.30;7.03;;;21.70;50.90;;;;;;4954511;28;20896;-78
2023/07/08 02:02:25;;;;;;;14.00;7.00;;;21.70;50.90;;;;;;4956121;28;20454;-79
2023/07/08 02:04:51;;;;;;;13.20;6.53;;;21.70;50.90;;;;;;4954178;29;20191;-79
2023/07/08 02:07:16;;;;;;;13.23;6.20;;;21.60;51.00;;;;;;4958476;29;20454;-79
2023/07/08 02:09:42;;;;;;;12.87;6.93;;;21.60;50.90;;;;;;4959670;28;20215;-79
2023/07/08 02:12:08;;;;;;;12.70;5.50;;;21.50;51.80;;;;;;4953282;28;20226;-80
2023/07/08 02:14:34;;;;;;;11.37;6.20;;;21.50;52.00;;;;;;4949848;29;20202;-78
2023/07/08 02:16:59;;;;;;;10.53;6.07;;;21.50;51.80;;;;;;4963183;28;20218;-78
2023/07/08 02:19:27;;;;;;;11.73;6.03;;;21.40;51.80;;;;;;4949162;29;20195;-79
2023/07/08 02:21:53;;;;;;;12.13;5.83;;;21.40;51.70;;;;;;4959361;28;20227;-81
2023/07/08 02:24:19;;;;;;;12.37;6.30;;;21.30;52.00;;;;;;4954202;28;20442;-80
2023/07/08 02:26:47;;;;;;;9.80;5.63;;;21.30;52.10;;;;;;4957934;28;20634;-78
2023/07/08 02:29:12;;;;;;;14.80;7.53;;;21.30;52.10;;;;;;4957625;28;20202;-78
2023/07/08 02:31:38;;;;;;;14.17;6.80;;;21.30;53.70;;;;;;4951919;28;20490;-79
2023/07/08 02:34:04;;;;;;;14.20;6.90;;;21.30;54.00;;;;;;4948091;28;20194;-79
2023/07/08 02:36:29;;;;;;;12.93;7.20;;;21.20;54.00;;;;;;4960047;28;20554;-78
2023/07/08 02:38:55;;;;;;;15.50;6.30;;;21.10;54.10;;;;;;4964319;28;20196;-78
2023/07/08 02:41:20;;;;;;;11.73;6.17;;;21.00;53.80;;;;;;4961233;28;20224;-79
2023/07/08 02:43:46;;;;;;;13.23;6.53;;;21.00;53.30;;;;;;4954021;28;20234;-78
2023/07/08 02:46:12;;;;;;;11.73;6.33;;;21.10;53.20;;;;;;4955136;29;20674;-79
2023/07/08 02:48:38;;;;;;;13.57;6.60;;;21.20;53.80;;;;;;4963685;28;20185;-78
2023/07/08 02:51:04;;;;;;;11.90;6.60;;;21.20;54.00;;;;;;4957085;28;20552;-79
2023/07/08 02:53:30;;;;;;;11.17;6.23;;;21.10;53.80;;;;;;4960280;28;20194;-79
2023/07/08 02:55:56;;;;;;;13.23;5.83;;;21.20;53.20;;;;;;4962885;28;20553;-80
2023/07/08 02:58:22;;;;;;;13.07;6.10;;;21.20;52.90;;;;;;4967679;29;20461;-79
2023/07/08 03:00:55;;;;;;;12.33;6.07;;;21.20;52.40;;;;;;4961065;28;20486;-79
2023/07/08 03:03:21;;;;;;;12.93;6.57;;;21.30;52.10;;;;;;4952248;28;20786;-78
2023/07/08 03:06:02;;;;;;;12.67;6.70;;;21.30;52.40;;;;;;4956619;29;20454;-79
2023/07/08 03:08:28;;;;;;;12.93;6.73;;;21.40;52.90;;;;;;4955491;29;20451;-79
2023/07/08 03:10:57;;;;;;;14.00;7.33;;;21.30;53.20;;;;;;4954034;28;20501;-79
2023/07/08 03:13:24;;;;;;;11.70;6.40;;;21.20;54.50;;;;;;4959061;28;20484;-79
2023/07/08 03:15:50;;;;;;;19.77;7.13;;;21.10;54.10;;;;;;4966146;28;20465;-78
2023/07/08 03:18:16;;;;;;;16.77;7.30;;;21.20;53.40;;;;;;4963474;29;20458;-80
2023/07/08 03:20:44;;;;;;;15.47;7.60;;;21.20;53.20;;;;;;4950248;28;20494;-79
2023/07/08 03:23:10;;;;;;;12.00;6.63;;;21.10;53.00;;;;;;4962895;28;20202;-79
2023/07/08 03:25:37;;;;;;;13.20;6.63;;;21.10;53.40;;;;;;4960774;28;20449;-80
2023/07/08 03:28:06;;;;;;;12.13;6.13;;;21.10;53.60;;;;;;4965667;28;20443;-79
2023/07/08 03:30:32;;;;;;;11.93;6.40;;;21.10;53.40;;;;;;4959179;28;20466;-80
2023/07/08 03:32:59;;;;;;;14.90;6.63;;;21.10;52.60;;;;;;4966068;28;20441;-80
2023/07/08 03:35:25;;;;;;;10.43;6.57;;;21.20;52.40;;;;;;4966712;28;20567;-80
2023/07/08 03:37:51;;;;;;;14.20;7.00;;;21.20;52.60;;;;;;4965004;28;20465;-80
2023/07/08 03:40:17;;;;;;;13.80;6.83;;;21.30;52.40;;;;;;4970692;28;21134;-80
2023/07/08 03:42:43;;;;;;;14.10;7.13;;;21.40;52.00;;;;;;4970464;28;20526;-79
2023/07/08 03:45:09;;;;;;;12.00;6.50;;;21.30;52.40;;;;;;4961771;28;20217;-80
2023/07/08 03:47:34;;;;;;;11.13;6.10;;;21.40;51.80;;;;;;4961254;29;20250;-80
2023/07/08 03:50:00;;;;;;;10.33;5.70;;;21.40;52.20;;;;;;4958937;28;20471;-80
2023/07/08 03:52:26;;;;;;;12.70;6.60;;;21.40;52.20;;;;;;4963896;28;20298;-78
2023/07/08 03:54:52;;;;;;;12.30;6.30;;;21.40;52.00;;;;;;4956211;28;20212;-79
2023/07/08 03:57:17;;;;;;;11.90;6.57;;;21.40;52.20;;;;;;4964047;29;20191;-80
2023/07/08 03:59:43;;;;;;;12.10;6.60;;;21.40;52.20;;;;;;4961991;28;20218;-80
2023/07/08 04:02:11;;;;;;;12.07;6.37;;;21.40;52.50;;;;;;4960242;28;20198;-79
2023/07/08 04:04:37;;;;;;;12.50;6.07;;;21.40;52.50;;;;;;4957896;29;20197;-79
2023/07/08 04:07:04;;;;;;;8.60;5.97;;;21.40;52.40;;;;;;4967143;29;20450;-79
2023/07/08 04:09:30;;;;;;;11.30;6.30;;;21.40;52.80;;;;;;4962672;28;20436;-79
2023/07/08 04:11:55;;;;;;;11.67;6.00;;;21.30;53.00;;;;;;4967749;28;20422;-79
2023/07/08 04:14:21;;;;;;;12.87;6.83;;;21.30;53.40;;;;;;4964143;29;20191;-79
2023/07/08 04:16:56;;;;;;;12.33;6.10;;;21.30;53.40;;;;;;4964332;29;20222;-81
2023/07/08 04:19:23;;;;;;;12.20;6.23;;;21.30;53.20;;;;;;4967627;28;20200;-79
2023/07/08 04:21:48;;;;;;;11.43;6.87;;;21.30;53.20;;;;;;4963838;28;20490;-80
2023/07/08 04:24:16;;;;;;;10.37;5.90;;;21.30;53.60;;;;;;4962738;28;20458;-78
2023/07/08 04:26:42;;;;;;;10.83;6.40;;;21.30;53.80;;;;;;4950552;29;20548;-80
2023/07/08 04:29:12;;;;;;;12.60;6.00;;;21.40;54.00;;;;;;4955335;29;20439;-81
2023/07/08 04:31:38;;;;;;;11.67;6.10;;;21.50;53.80;;;;;;4949785;28;20483;-80
2023/07/08 04:34:04;;;;;;;11.07;6.20;;;21.50;53.70;;;;;;4964092;28;20426;-80
2023/07/08 04:36:30;;;;;;;13.23;6.43;;;21.50;53.70;;;;;;4962919;28;20209;-80
2023/07/08 04:38:57;;;;;;;12.50;6.67;;;21.50;53.80;;;;;;4962851;28;20650;-78
2023/07/08 04:41:26;;;;;;;13.70;7.00;;;21.70;53.70;;;;;;4957794;28;20486;-80
2023/07/08 04:43:53;;;;;;;12.70;6.60;;;21.70;53.40;;;;;;4964232;28;20435;-79
2023/07/08 04:46:39;;;;;;;13.50;6.33;;;21.80;53.60;;;;;;4961147;28;20466;-80
2023/07/08 04:49:06;;;;;;;12.10;6.50;;;21.90;53.40;;;;;;4959314;28;20463;-80
2023/07/08 04:51:33;;;;;;;15.60;6.70;;;21.90;53.30;;;;;;4955486;28;20489;-80
2023/07/08 04:53:58;;;;;;;14.67;6.77;;;22.00;52.80;;;;;;4958355;28;20424;-80
2023/07/08 04:56:38;;;;;;;12.93;7.00;;;22.20;52.60;;;;;;4953155;29;20454;-80
2023/07/08 04:59:05;;;;;;;11.50;7.07;;;22.10;54.00;;;;;;4959272;29;20446;-79
2023/07/08 05:01:30;;;;;;;14.80;7.03;;;21.90;54.50;;;;;;4952324;28;20493;-80
2023/07/08 05:03:56;;;;;;;13.73;7.40;;;21.90;54.90;;;;;;4957080;28;20526;-81
2023/07/08 05:06:22;;;;;;;15.73;7.27;;;22.10;54.60;;;;;;4959056;29;20195;-81
2023/07/08 05:08:47;;;;;;;12.17;6.50;;;22.00;54.80;;;;;;4954834;29;20195;-79
2023/07/08 05:11:13;;;;;;;10.97;6.10;;;22.00;54.80;;;;;;4966053;28;20228;-78
2023/07/08 05:13:38;;;;;;;11.60;6.67;;;22.20;54.60;;;;;;4956516;28;20241;-79
2023/07/08 05:16:04;;;;;;;15.27;6.23;;;22.10;54.40;;;;;;4959621;29;20200;-79
2023/07/08 05:18:30;;;;;;;12.93;6.90;;;22.00;54.50;;;;;;4958457;29;20580;-80
2023/07/08 05:20:57;;;;;;;18.80;8.13;;;22.20;54.40;;;;;;4960214;28;20287;-79
2023/07/08 05:23:24;;;;;;;13.00;6.93;;;22.30;54.10;;;;;;4963703;28;20193;-79
2023/07/08 05:25:50;;;;;;;11.00;6.50;;;22.30;54.10;;;;;;4962680;28;20550;-78
2023/07/08 05:28:15;;;;;;;12.17;6.30;;;22.50;53.30;;;;;;4956803;28;20437;-79
2023/07/08 05:30:41;;;;;;;12.00;6.53;;;22.60;53.60;;;;;;4963553;28;20268;-80
2023/07/08 05:33:08;;;;;;;13.63;6.50;;;22.60;54.00;;;;;;4957349;28;20188;-79
2023/07/08 05:35:33;;;;;;;16.53;7.67;;;22.60;54.10;;;;;;4954556;28;20531;-79
2023/07/08 05:37:59;;;;;;;13.80;7.23;;;22.70;54.00;;;;;;4957747;29;20464;-80
2023/07/08 05:40:25;;;;;;;14.70;6.53;;;22.90;53.80;;;;;;4955816;28;20222;-79
2023/07/08 05:42:50;;;;;;;13.43;7.30;;;23.10;53.80;;;;;;4958233;28;20187;-78
2023/07/08 05:45:16;;;;;;;13.80;6.60;;;23.30;52.50;;;;;;4963006;28;20209;-79
2023/07/08 05:47:42;;;;;;;16.07;7.23;;;23.40;52.60;;;;;;4952908;29;20195;-79
2023/07/08 05:50:08;;;;;;;12.67;6.70;;;23.40;52.40;;;;;;4957712;28;20226;-79
2023/07/08 05:52:33;;;;;;;14.67;7.37;;;23.40;52.20;;;;;;4955923;28;20190;-78
2023/07/08 05:54:59;;;;;;;14.47;6.70;;;23.70;51.80;;;;;;4957505;28;20969;-80
2023/07/08 05:57:25;;;;;;;13.87;6.40;;;23.90;50.60;;;;;;4959057;28;20622;-79
2023/07/08 05:59:51;;;;;;;14.10;6.60;;;23.90;50.50;;;;;;4962577;28;20208;-78
2023/07/08 06:02:19;;;;;;;10.60;5.90;;;24.00;50.30;;;;;;4967953;28;20264;-78
2023/07/08 06:04:45;;;;;;;13.30;7.10;;;24.10;50.10;;;;;;4958569;28;20486;-80
2023/07/08 06:07:10;;;;;;;12.00;6.80;;;24.10;50.20;;;;;;4943648;29;20442;-78
2023/07/08 06:09:36;;;;;;;14.03;7.20;;;24.10;50.60;;;;;;4959266;28;20234;-80
2023/07/08 06:12:02;;;;;;;11.97;6.57;;;24.10;51.20;;;;;;4955366;28;20197;-78
2023/07/08 06:14:28;;;;;;;15.50;6.87;;;24.20;51.00;;;;;;4957462;28;20230;-79
2023/07/08 06:16:54;;;;;;;11.83;6.30;;;24.30;51.00;;;;;;4961161;28;20228;-77
2023/07/08 06:19:20;;;;;;;13.27;6.80;;;24.30;51.00;;;;;;4955593;29;20449;-79
2023/07/08 06:21:46;;;;;;;14.87;6.80;;;24.40;51.20;;;;;;4949574;28;20506;-80
2023/07/08 06:24:12;;;;;;;15.10;7.60;;;24.50;50.10;;;;;;4949071;28;20433;-79
2023/07/08 06:26:38;;;;;;;14.70;7.10;;;24.50;49.80;;;;;;4950707;28;20232;-80
2023/07/08 06:29:05;;;;;;;9.43;6.57;;;24.50;48.60;;;;;;4951451;29;20440;-80
2023/07/08 06:31:31;;;;;;;17.27;6.77;;;24.60;49.00;;;;;;4954482;28;20231;-81
2023/07/08 06:33:57;;;;;;;12.87;7.60;;;24.80;48.20;;;;;;4962654;28;20434;-79
2023/07/08 06:36:27;;;;;;;10.80;6.00;;;24.70;48.10;;;;;;4962291;29;20256;-79
2023/07/08 06:38:52;;;;;;;12.43;6.03;;;24.70;47.70;;;;;;4965874;28;20233;-79
2023/07/08 06:41:18;;;;;;;11.00;5.80;;;24.80;47.50;;;;;;4954821;28;20494;-80
2023/07/08 06:43:44;;;;;;;12.50;5.80;;;24.90;47.50;;;;;;4958721;28;20189;-78
2023/07/08 06:46:10;;;;;;;14.03;5.70;;;24.90;48.10;;;;;;4960650;28;20269;-79
2023/07/08 06:48:36;;;;;;;10.80;5.80;;;24.90;48.20;;;;;;4965148;29;20199;-79
2023/07/08 06:51:01;;;;;;;12.53;6.67;;;25.00;48.30;;;;;;4962597;28;20284;-80
2023/07/08 06:53:27;;;;;;;11.17;6.03;;;25.10;48.70;;;;;;4967307;28;20448;-79
2023/07/08 06:55:53;;;;;;;14.37;5.80;;;25.20;48.70;;;;;;4952804;29;20281;-79
2023/07/08 06:58:18;;;;;;;10.30;6.03;;;25.30;48.70;;;;;;4952001;29;20186;-80
2023/07/08 07:00:44;;;;;;;11.20;5.83;;;25.40;48.70;;;;;;4961657;28;20231;-80
2023/07/08 07:03:11;;;;;;;9.20;5.93;;;25.50;48.70;;;;;;4961609;28;20177;-79
2023/07/08 07:05:37;;;;;;;12.07;5.90;;;25.50;48.90;;;;;;4948604;29;20477;-79
2023/07/08 07:08:04;;;;;;;10.70;5.60;;;25.50;49.10;;;;;;4955288;28;20456;-77
2023/07/08 07:10:30;;;;;;;11.73;5.63;;;25.50;49.40;;;;;;4950759;28;20488;-79
2023/07/08 07:12:56;;;;;;;12.80;5.60;;;25.40;49.90;;;;;;4952529;28;20424;-80
2023/07/08 07:15:21;;;;;;;9.57;4.70;;;25.30;50.20;;;;;;4957351;28;20222;-78
2023/07/08 07:17:47;;;;;;;11.97;5.90;;;25.40;50.60;;;;;;4955213;28;20206;-80
2023/07/08 07:20:13;;;;;;;13.53;5.30;;;25.40;50.60;;;;;;4953069;28;20332;-80
2023/07/08 07:22:38;;;;;;;9.30;4.93;;;25.50;50.50;;;;;;4961786;28;20190;-79
2023/07/08 07:25:04;;;;;;;8.00;4.40;;;25.60;50.50;;;;;;4953827;28;20282;-79
2023/07/08 07:27:30;;;;;;;11.30;5.30;;;25.70;50.60;;;;;;4955445;28;20187;-79
2023/07/08 07:29:59;;;;;;;9.73;5.27;;;25.70;50.90;;;;;;4956333;28;20557;-80
2023/07/08 07:32:25;;;;;;;8.87;5.07;;;25.80;50.90;;;;;;4955290;28;20195;-80
2023/07/08 07:34:51;;;;;;;7.63;4.30;;;25.80;50.60;;;;;;4944654;29;20827;-81
2023/07/08 07:37:19;;;;;;;11.10;5.03;;;25.80;50.70;;;;;;4963468;28;20488;-80
2023/07/08 07:39:45;;;;;;;8.10;4.70;;;25.90;50.90;;;;;;4958440;28;20482;-80
2023/07/08 07:42:13;;;;;;;8.00;4.80;;;25.80;50.90;;;;;;4971734;28;20439;-80
2023/07/08 07:44:39;;;;;;;8.90;4.37;;;25.80;51.30;;;;;;4945398;29;20195;-80
2023/07/08 07:47:06;;;;;;;9.90;4.57;;;26.00;51.30;;;;;;4954721;28;20454;-80
2023/07/08 07:49:31;;;;;;;8.40;4.83;;;26.10;51.20;;;;;;4952969;28;20590;-80
2023/07/08 07:51:57;;;;;;;8.30;4.73;;;26.00;51.30;;;;;;4955709;28;20428;-80
2023/07/08 07:54:23;;;;;;;7.87;4.30;;;26.00;51.30;;;;;;4962778;29;20195;-81
2023/07/08 07:56:48;;;;;;;9.00;4.40;;;26.00;51.30;;;;;;4960168;28;20254;-79
2023/07/08 07:59:14;;;;;;;10.17;5.73;;;26.10;50.60;;;;;;4960527;29;20197;-81
2023/07/08 08:01:41;;;;;;;10.83;4.40;;;26.20;50.60;;;;;;4958446;28;20243;-79
2023/07/08 08:04:08;;;;;;;8.13;4.73;;;26.30;50.30;;;;;;4950015;28;20231;-81
2023/07/08 08:06:34;;;;;;;9.93;4.43;;;26.50;50.50;;;;;;4962119;28;20451;-80
2023/07/08 08:08:59;;;;;;;9.90;4.50;;;26.60;50.30;;;;;;4963368;28;20431;-82
2023/07/08 08:11:25;;;;;;;11.27;4.83;;;26.80;49.80;;;;;;4960351;28;20481;-81
2023/07/08 08:13:52;;;;;;;12.40;5.20;;;27.00;49.70;;;;;;4954418;28;20187;-80
2023/07/08 08:16:18;;;;;;;6.77;4.23;;;27.10;49.10;;;;;;4960880;28;20459;-81
2023/07/08 08:18:43;;;;;;;15.23;4.83;;;27.10;48.70;;;;;;4953777;29;20463;-80
2023/07/08 08:21:09;;;;;;;10.37;4.60;;;27.00;48.70;;;;;;4951072;28;20226;-81
2023/07/08 08:23:34;;;;;;;9.40;4.47;;;26.80;49.10;;;;;;4960659;28;20290;-81
2023/07/08 08:26:00;;;;;;;12.70;4.83;;;26.60;49.70;;;;;;4955200;29;20205;-82
2023/07/08 08:28:26;;;;;;;8.70;4.50;;;26.80;49.50;;;;;;4951451;29;20196;-79
2023/07/08 08:30:51;;;;;;;8.53;4.63;;;26.90;49.00;;;;;;4949036;28;20577;-81
2023/07/08 08:33:18;;;;;;;6.60;3.63;;;26.90;48.30;;;;;;4963597;28;20317;-80
2023/07/08 08:35:44;;;;;;;8.17;3.93;;;26.90;48.60;;;;;;4953692;29;20219;-80
2023/07/08 08:38:10;;;;;;;7.30;3.53;;;27.00;48.50;;;;;;4962496;29;20450;-81
2023/07/08 08:40:36;;;;;;;9.03;3.77;;;27.10;47.90;;;;;;4958002;28;20271;-82
2023/07/08 08:43:29;;;;;;;6.47;3.30;;;27.10;48.20;;;;;;4964428;28;20199;-81
2023/07/08 08:46:12;;;;;;;7.90;3.90;;;27.20;47.30;;;;;;4957444;29;20431;-81
2023/07/08 08:49:16;;;;;;;8.13;3.97;;;27.40;47.00;;;;;;4961251;28;20537;-80
2023/07/08 08:51:42;;;;;;;6.00;3.60;;;27.50;46.70;;;;;;4954148;28;20466;-81
2023/07/08 08:54:08;;;;;;;5.73;3.37;;;27.50;46.70;;;;;;4949119;28;20445;-79
2023/07/08 08:56:44;;;;;;;7.33;3.30;;;27.40;46.90;;;;;;4956457;29;20434;-81
2023/07/08 08:59:25;;;;;;;7.63;3.53;;;27.40;47.00;;;;;;4947230;29;20438;-81
2023/07/08 09:01:52;;;;;;;12.03;3.80;;;27.50;47.50;;;;;;4967247;28;20492;-81
2023/07/08 09:04:29;;;;;;;9.33;3.33;;;27.60;46.60;;;;;;4955838;28;20577;-81
2023/07/08 09:07:05;;;;;;;5.30;3.10;;;27.70;46.70;;;;;;4957239;28;20486;-81
2023/07/08 09:09:38;;;;;;;6.93;3.50;;;27.90;45.00;;;;;;4954565;28;20733;-79
2023/07/08 09:12:17;;;;;;;4.77;3.17;;;27.80;45.40;;;;;;4958775;28;20436;-80
2023/07/08 09:14:43;;;;;;;9.07;3.80;;;27.80;45.80;;;;;;4954938;29;21030;-80
2023/07/08 09:17:14;;;;;;;7.00;3.53;;;28.00;45.70;;;;;;4954154;29;20510;-81
2023/07/08 09:19:59;;;;;;;9.80;3.50;;;27.90;45.50;;;;;;4964832;28;20224;-81
2023/07/08 09:22:45;;;;;;;7.00;3.53;;;27.90;45.70;;;;;;4978793;28;20478;-81
2023/07/08 09:25:29;;;;;;;5.90;3.10;;;27.70;46.50;;;;;;4951339;29;20527;-80
2023/07/08 09:27:55;;;;;;;5.67;3.20;;;27.90;45.30;;;;;;4947517;29;20435;-80
2023/07/08 09:30:24;;;;;;;7.13;3.70;;;28.00;45.00;;;;;;4952102;28;20466;-81
2023/07/08 09:32:50;;;;;;;5.97;3.50;;;28.10;44.90;;;;;;4947860;28;20208;-79
2023/07/08 09:35:26;;;;;;;5.80;3.20;;;28.10;44.90;;;;;;4954779;28;20473;-82
2023/07/08 09:37:52;;;;;;;7.60;3.43;;;27.90;45.40;;;;;;4956598;29;20430;-80
2023/07/08 09:40:23;;;;;;;6.87;3.90;;;28.00;45.40;;;;;;4950466;28;20550;-80
2023/07/08 09:42:54;;;;;;;9.60;3.33;;;28.20;45.30;;;;;;4947957;28;20595;-80
2023/07/08 09:45:23;;;;;;;4.93;3.20;;;28.40;45.10;;;;;;4959024;28;20444;-79
2023/07/08 09:47:53;;;;;;;4.80;3.07;;;28.60;44.20;;;;;;4963909;28;20440;-81
2023/07/08 09:50:25;;;;;;;5.00;3.37;;;28.70;43.90;;;;;;4957142;28;20483;-82
2023/07/08 09:52:57;;;;;;;6.57;3.33;;;28.70;44.90;;;;;;4969998;28;20439;-78
2023/07/08 09:55:23;;;;;;;5.90;3.20;;;28.70;44.30;;;;;;4965229;28;20436;-78
2023/07/08 09:57:52;;;;;;;7.43;3.00;;;28.70;44.60;;;;;;4965891;29;20444;-80
2023/07/08 10:00:26;;;;;;;6.93;3.60;;;28.60;44.20;;;;;;4959257;28;20518;-80
2023/07/08 10:02:55;;;;;;;7.13;3.07;;;28.70;43.70;;;;;;4966272;28;20435;-78
2023/07/08 10:05:34;;;;;;;4.90;2.87;;;28.70;42.00;;;;;;4962319;28;20441;-80
2023/07/08 10:08:03;;;;;;;9.47;4.60;;;28.70;42.60;;;;;;4952668;29;20448;-80
2023/07/08 10:10:34;;;;;;;5.00;3.30;;;28.60;43.40;;;;;;4963850;28;20472;-78
2023/07/08 10:13:03;;;;;;;6.37;3.50;;;28.50;43.90;;;;;;4963317;28;20425;-80
2023/07/08 10:15:59;;;;;;;5.97;3.50;;;28.70;43.40;;;;;;4971733;28;20440;-80
2023/07/08 10:18:29;;;;;;;8.47;3.90;;;28.60;44.30;;;;;;4967188;28;20452;-80
2023/07/08 10:21:20;;;;;;;8.57;4.00;;;28.50;44.60;;;;;;4971407;28;20511;-81
2023/07/08 10:24:18;;;;;;;8.67;4.43;;;28.60;44.20;;;;;;4967646;28;20496;-81
2023/07/08 10:26:49;;;;;;;9.93;4.20;;;28.50;45.70;;;;;;4965265;29;20450;-80
2023/07/08 10:29:24;;;;;;;10.90;4.63;;;28.30;46.20;;;;;;4961274;28;20953;-79
2023/07/08 10:32:24;;;;;;;8.43;3.97;;;28.50;46.30;;;;;;4961175;28;20456;-80
2023/07/08 10:35:01;;;;;;;8.40;4.47;;;28.70;46.20;;;;;;4970678;29;20433;-81
2023/07/08 10:37:53;;;;;;;9.07;4.87;;;29.20;45.50;;;;;;4963478;29;20447;-80
2023/07/08 10:40:33;;;;;;;8.77;4.73;;;29.60;44.20;;;;;;4960186;28;20537;-80
2023/07/08 10:43:24;;;;;;;7.10;4.50;;;30.00;43.50;;;;;;4954109;28;20435;-79
2023/07/08 10:45:55;;;;;;;10.40;4.43;;;30.00;42.80;;;;;;4960880;29;20472;-80
2023/07/08 10:48:29;;;;;;;6.33;3.70;;;30.10;43.10;;;;;;4952010;29;20453;-80
2023/07/08 10:51:17;;;;;;;7.70;3.57;;;30.50;41.50;;;;;;4965219;28;20543;-80
2023/07/08 10:54:10;;;;;;;8.00;4.10;;;30.90;40.70;;;;;;4966068;28;20428;-84
2023/07/08 10:56:43;;;;;;;6.93;3.80;;;31.10;40.30;;;;;;4948433;29;20432;-80
2023/07/08 10:59:38;;;;;;;4.80;3.40;;;31.20;39.80;;;;;;4962207;28;20432;-81
2023/07/08 11:02:39;;;;;;;6.50;3.90;;;31.30;39.60;;;;;;4967830;28;20503;-81
2023/07/08 11:05:43;;;;;;;5.80;3.93;;;31.50;39.20;;;;;;4956638;29;20450;-81
2023/07/08 11:08:26;;;;;;;4.93;3.30;;;31.60;39.10;;;;;;4945634;29;20472;-81
2023/07/08 11:10:51;;;;;;;12.60;4.47;;;31.70;38.80;;;;;;4954791;29;20469;-81
2023/07/08 11:13:27;;;;;;;12.83;4.07;;;31.50;39.40;;;;;;4953597;29;20512;-80
2023/07/08 11:16:19;;;;;;;10.67;4.07;;;31.40;39.10;;;;;;4951835;29;20227;-81
2023/07/08 11:18:55;;;;;;;7.50;3.90;;;31.40;39.50;;;;;;4957143;29;20508;-83
2023/07/08 11:21:32;;;;;;;6.00;3.60;;;31.50;39.10;;;;;;4954747;28;20479;-80
2023/07/08 11:24:19;;;;;;;8.53;3.80;;;31.60;38.80;;;;;;4949879;29;20471;-82
2023/07/08 11:26:52;;;;;;;4.97;3.23;;;31.70;38.70;;;;;;4949098;29;20598;-81
2023/07/08 11:29:42;;;;;;;6.77;3.30;;;31.50;39.00;;;;;;4952409;29;20436;-82
2023/07/08 11:32:14;;;;;;;7.23;3.37;;;31.10;39.60;;;;;;4949754;29;20473;-80
2023/07/08 11:34:42;;;;;;;10.90;3.83;;;31.20;39.80;;;;;;4942852;29;20446;-82
2023/07/08 11:37:09;;;;;;;6.70;4.07;;;31.30;38.70;;;;;;4952690;29;21063;-81
2023/07/08 11:39:38;;;;;;;6.13;3.63;;;31.20;39.50;;;;;;4948120;28;20480;-82
2023/07/08 11:42:30;;;;;;;5.00;3.00;;;31.80;38.30;;;;;;4951023;28;20587;-79
2023/07/08 11:44:58;;;;;;;4.70;3.23;;;32.30;37.60;;;;;;4947831;29;20428;-80
2023/07/08 11:47:38;;;;;;;7.00;3.60;;;32.20;37.00;;;;;;4955141;28;20443;-80
2023/07/08 11:50:13;;;;;;;7.10;3.20;;;32.50;36.80;;;;;;4945409;28;20471;-81
2023/07/08 11:52:51;;;;;;;6.20;3.80;;;32.50;37.00;;;;;;4956201;28;20452;-82
2023/07/08 11:55:28;;;;;;;7.43;3.63;;;32.40;37.10;;;;;;4951465;29;20443;-81
2023/07/08 11:57:57;;;;;;;6.10;3.70;;;32.30;37.20;;;;;;4962210;28;20438;-78
2023/07/08 12:00:25;;;;;;;7.40;3.70;;;32.00;37.80;;;;;;4960290;28;20619;-82
2023/07/08 12:02:57;;;;;;;6.67;3.40;;;32.00;38.00;;;;;;4952227;28;20445;-80
2023/07/08 12:05:38;;;;;;;8.40;4.07;;;32.10;37.80;;;;;;4960921;28;20449;-80
2023/07/08 12:08:17;;;;;;;9.60;3.70;;;32.00;38.20;;;;;;4954226;29;20444;-80
2023/07/08 12:10:51;;;;;;;6.70;3.83;;;32.40;37.40;;;;;;4959139;28;20532;-79
2023/07/08 12:13:24;;;;;;;6.10;3.23;;;32.50;37.10;;;;;;4963319;28;20448;-80
2023/07/08 12:15:50;;;;;;;7.53;3.50;;;32.50;36.70;;;;;;4955350;29;20440;-78
2023/07/08 12:18:21;;;;;;;5.97;3.00;;;32.20;36.80;;;;;;4955465;29;20448;-79
2023/07/08 12:20:53;;;;;;;8.70;3.60;;;32.00;37.60;;;;;;4959738;28;20512;-80
2023/07/08 12:23:21;;;;;;;7.20;3.60;;;31.60;38.00;;;;;;4975487;28;20435;-80
2023/07/08 12:25:47;;;;;;;7.37;3.60;;;31.70;38.20;;;;;;4961550;29;20510;-79
2023/07/08 12:28:14;;;;;;;5.07;3.80;;;32.20;37.40;;;;;;4944606;29;20505;-80
2023/07/08 12:30:42;;;;;;;4.83;3.13;;;32.50;36.40;;;;;;4943243;28;20476;-80
2023/07/08 12:33:40;;;;;;;9.20;4.03;;;33.00;35.50;;;;;;4962001;28;20450;-81
2023/07/08 12:36:09;;;;;;;7.13;3.03;;;32.70;35.60;;;;;;4920401;29;20811;-81
2023/07/08 12:38:40;;;;;;;5.03;3.23;;;32.80;35.30;;;;;;4921938;29;20995;-80
2023/07/08 12:41:14;;;;;;;9.17;3.93;;;33.00;35.10;;;;;;4929974;29;20545;-80
2023/07/08 12:43:39;;;;;;;6.30;3.10;;;32.60;35.50;;;;;;4927133;29;20521;-80
2023/07/08 12:46:08;;;;;;;4.87;3.20;;;32.90;34.90;;;;;;4925247;29;20469;-80
2023/07/08 12:48:34;;;;;;;4.50;2.77;;;33.50;34.00;;;;;;4934025;29;20229;-79
2023/07/08 12:51:00;;;;;;;8.97;3.70;;;33.90;33.50;;;;;;4933056;29;20557;-80
2023/07/08 12:53:25;;;;;;;6.80;3.70;;;34.10;33.10;;;;;;4935104;29;20471;-80